sensor_id;sensor_type;location;lat;lon;timestamp;P1;durP1;ratioP1;P2;durP2;ratioP2
7128;SDS011;3606;52.930;8.644;2024-02-15T00:00:47;23.90;;;14.20;;
7128;SDS011;3606;52.930;8.644;2024-02-15T00:03:13;20.00;;;13.80;;
7128;SDS011;3606;52.930;8.644;2024-02-15T00:05:39;20.23;;;13.00;;
7128;SDS011;3606;52.930;8.644;2024-02-15T00:08:05;20.67;;;13.27;;
7128;SDS011;3606;52.930;8.644;2024-02-15T00:10:31;16.70;;;12.37;;
7128;SDS011;3606;52.930;8.644;2024-02-15T00:12:57;20.23;;;13.60;;
7128;SDS011;3606;52.930;8.644;2024-02-15T00:15:23;19.70;;;13.10;;
7128;SDS011;3606;52.930;8.644;2024-02-15T00:17:49;20.40;;;13.50;;
7128;SDS011;3606;52.930;8.644;2024-02-15T00:20:15;23.47;;;14.70;;
7128;SDS011;3606;52.930;8.644;2024-02-15T00:22:42;24.70;;;14.97;;
7128;SDS011;3606;52.930;8.644;2024-02-15T00:25:08;22.33;;;15.30;;
7128;SDS011;3606;52.930;8.644;2024-02-15T00:27:35;25.37;;;15.30;;
7128;SDS011;3606;52.930;8.644;2024-02-15T00:30:01;24.23;;;14.03;;
7128;SDS011;3606;52.930;8.644;2024-02-15T00:32:27;24.60;;;15.20;;
7128;SDS011;3606;52.930;8.644;2024-02-15T00:34:53;23.87;;;15.20;;
7128;SDS011;3606;52.930;8.644;2024-02-15T00:37:19;20.93;;;14.90;;
7128;SDS011;3606;52.930;8.644;2024-02-15T00:39:45;22.50;;;14.87;;
7128;SDS011;3606;52.930;8.644;2024-02-15T00:42:11;22.37;;;15.20;;
7128;SDS011;3606;52.930;8.644;2024-02-15T00:44:36;20.47;;;13.73;;
7128;SDS011;3606;52.930;8.644;2024-02-15T00:47:02;23.57;;;14.87;;
7128;SDS011;3606;52.930;8.644;2024-02-15T00:49:28;23.33;;;14.47;;
7128;SDS011;3606;52.930;8.644;2024-02-15T00:51:53;22.37;;;14.87;;
7128;SDS011;3606;52.930;8.644;2024-02-15T00:54:19;21.73;;;14.17;;
7128;SDS011;3606;52.930;8.644;2024-02-15T00:56:45;21.60;;;12.93;;
7128;SDS011;3606;52.930;8.644;2024-02-15T00:59:10;20.63;;;13.37;;
7128;SDS011;3606;52.930;8.644;2024-02-15T01:01:36;17.13;;;12.80;;
7128;SDS011;3606;52.930;8.644;2024-02-15T01:04:02;18.60;;;12.83;;
7128;SDS011;3606;52.930;8.644;2024-02-15T01:06:28;16.77;;;12.43;;
7128;SDS011;3606;52.930;8.644;2024-02-15T01:08:54;20.20;;;13.07;;
7128;SDS011;3606;52.930;8.644;2024-02-15T01:11:20;18.93;;;12.67;;
7128;SDS011;3606;52.930;8.644;2024-02-15T01:13:46;16.67;;;12.17;;
7128;SDS011;3606;52.930;8.644;2024-02-15T01:16:11;17.37;;;12.40;;
7128;SDS011;3606;52.930;8.644;2024-02-15T01:18:37;18.33;;;13.03;;
7128;SDS011;3606;52.930;8.644;2024-02-15T01:21:03;17.77;;;12.77;;
7128;SDS011;3606;52.930;8.644;2024-02-15T01:23:29;20.37;;;13.50;;
7128;SDS011;3606;52.930;8.644;2024-02-15T01:25:54;18.53;;;12.40;;
7128;SDS011;3606;52.930;8.644;2024-02-15T01:28:20;19.00;;;12.73;;
7128;SDS011;3606;52.930;8.644;2024-02-15T01:30:47;20.13;;;13.07;;
7128;SDS011;3606;52.930;8.644;2024-02-15T01:33:12;19.53;;;14.13;;
7128;SDS011;3606;52.930;8.644;2024-02-15T01:35:38;17.33;;;12.20;;
7128;SDS011;3606;52.930;8.644;2024-02-15T01:38:05;17.67;;;12.50;;
7128;SDS011;3606;52.930;8.644;2024-02-15T01:40:30;19.30;;;12.83;;
7128;SDS011;3606;52.930;8.644;2024-02-15T01:42:56;16.40;;;12.07;;
7128;SDS011;3606;52.930;8.644;2024-02-15T01:45:23;17.17;;;12.73;;
7128;SDS011;3606;52.930;8.644;2024-02-15T01:47:50;17.90;;;12.93;;
7128;SDS011;3606;52.930;8.644;2024-02-15T01:50:17;17.97;;;12.90;;
7128;SDS011;3606;52.930;8.644;2024-02-15T01:52:43;20.20;;;12.63;;
7128;SDS011;3606;52.930;8.644;2024-02-15T01:55:12;17.53;;;12.83;;
7128;SDS011;3606;52.930;8.644;2024-02-15T01:57:45;17.30;;;13.00;;
7128;SDS011;3606;52.930;8.644;2024-02-15T02:00:11;19.20;;;13.20;;
7128;SDS011;3606;52.930;8.644;2024-02-15T02:02:38;17.57;;;13.17;;
7128;SDS011;3606;52.930;8.644;2024-02-15T02:05:06;18.97;;;13.27;;
7128;SDS011;3606;52.930;8.644;2024-02-15T02:07:32;22.07;;;13.47;;
7128;SDS011;3606;52.930;8.644;2024-02-15T02:09:58;17.33;;;12.93;;
7128;SDS011;3606;52.930;8.644;2024-02-15T02:12:24;20.57;;;13.73;;
7128;SDS011;3606;52.930;8.644;2024-02-15T02:14:52;18.80;;;12.90;;
7128;SDS011;3606;52.930;8.644;2024-02-15T02:17:19;18.37;;;13.60;;
7128;SDS011;3606;52.930;8.644;2024-02-15T02:19:45;18.27;;;13.23;;
7128;SDS011;3606;52.930;8.644;2024-02-15T02:22:11;21.53;;;13.67;;
7128;SDS011;3606;52.930;8.644;2024-02-15T02:24:56;22.40;;;14.37;;
7128;SDS011;3606;52.930;8.644;2024-02-15T02:27:23;22.13;;;13.00;;
7128;SDS011;3606;52.930;8.644;2024-02-15T02:29:52;20.90;;;13.73;;
7128;SDS011;3606;52.930;8.644;2024-02-15T02:32:18;19.87;;;13.20;;
7128;SDS011;3606;52.930;8.644;2024-02-15T02:34:44;20.17;;;14.30;;
7128;SDS011;3606;52.930;8.644;2024-02-15T02:37:10;27.03;;;13.80;;
7128;SDS011;3606;52.930;8.644;2024-02-15T02:39:36;22.07;;;14.20;;
7128;SDS011;3606;52.930;8.644;2024-02-15T02:42:02;22.07;;;14.80;;
7128;SDS011;3606;52.930;8.644;2024-02-15T02:44:28;21.30;;;13.77;;
7128;SDS011;3606;52.930;8.644;2024-02-15T02:46:54;22.20;;;14.47;;
7128;SDS011;3606;52.930;8.644;2024-02-15T02:49:20;20.33;;;15.03;;
7128;SDS011;3606;52.930;8.644;2024-02-15T02:51:46;29.67;;;15.13;;
7128;SDS011;3606;52.930;8.644;2024-02-15T02:54:11;20.17;;;14.37;;
7128;SDS011;3606;52.930;8.644;2024-02-15T02:56:37;23.37;;;15.30;;
7128;SDS011;3606;52.930;8.644;2024-02-15T02:59:02;23.30;;;15.23;;
7128;SDS011;3606;52.930;8.644;2024-02-15T03:01:28;24.33;;;16.17;;
7128;SDS011;3606;52.930;8.644;2024-02-15T03:03:54;21.87;;;15.23;;
7128;SDS011;3606;52.930;8.644;2024-02-15T03:06:21;24.37;;;15.83;;
7128;SDS011;3606;52.930;8.644;2024-02-15T03:08:46;27.03;;;15.67;;
7128;SDS011;3606;52.930;8.644;2024-02-15T03:11:12;22.97;;;16.03;;
7128;SDS011;3606;52.930;8.644;2024-02-15T03:13:39;25.33;;;15.83;;
7128;SDS011;3606;52.930;8.644;2024-02-15T03:16:05;27.73;;;16.60;;
7128;SDS011;3606;52.930;8.644;2024-02-15T03:18:31;23.43;;;16.00;;
7128;SDS011;3606;52.930;8.644;2024-02-15T03:21:00;24.83;;;15.53;;
7128;SDS011;3606;52.930;8.644;2024-02-15T03:23:26;27.30;;;16.67;;
7128;SDS011;3606;52.930;8.644;2024-02-15T03:25:51;27.67;;;16.27;;
7128;SDS011;3606;52.930;8.644;2024-02-15T03:28:18;26.43;;;16.70;;
7128;SDS011;3606;52.930;8.644;2024-02-15T03:30:46;28.13;;;16.37;;
7128;SDS011;3606;52.930;8.644;2024-02-15T03:33:12;22.83;;;14.83;;
7128;SDS011;3606;52.930;8.644;2024-02-15T03:35:38;20.70;;;14.43;;
7128;SDS011;3606;52.930;8.644;2024-02-15T03:38:04;27.03;;;15.47;;
7128;SDS011;3606;52.930;8.644;2024-02-15T03:40:29;22.90;;;15.00;;
7128;SDS011;3606;52.930;8.644;2024-02-15T03:42:57;26.20;;;16.10;;
7128;SDS011;3606;52.930;8.644;2024-02-15T03:45:23;23.30;;;15.50;;
7128;SDS011;3606;52.930;8.644;2024-02-15T03:47:53;23.10;;;14.87;;
7128;SDS011;3606;52.930;8.644;2024-02-15T03:50:19;23.13;;;15.03;;
7128;SDS011;3606;52.930;8.644;2024-02-15T03:52:46;23.07;;;15.53;;
7128;SDS011;3606;52.930;8.644;2024-02-15T03:55:12;22.57;;;14.53;;
7128;SDS011;3606;52.930;8.644;2024-02-15T03:57:38;21.67;;;14.50;;
7128;SDS011;3606;52.930;8.644;2024-02-15T04:00:06;27.23;;;16.17;;
7128;SDS011;3606;52.930;8.644;2024-02-15T04:02:33;22.13;;;14.83;;
7128;SDS011;3606;52.930;8.644;2024-02-15T04:05:00;23.23;;;14.40;;
7128;SDS011;3606;52.930;8.644;2024-02-15T04:07:26;23.50;;;13.73;;
7128;SDS011;3606;52.930;8.644;2024-02-15T04:09:52;27.07;;;15.57;;
7128;SDS011;3606;52.930;8.644;2024-02-15T04:12:18;26.40;;;15.40;;
7128;SDS011;3606;52.930;8.644;2024-02-15T04:14:44;23.27;;;15.27;;
7128;SDS011;3606;52.930;8.644;2024-02-15T04:17:10;21.90;;;15.03;;
7128;SDS011;3606;52.930;8.644;2024-02-15T04:19:43;26.57;;;15.40;;
7128;SDS011;3606;52.930;8.644;2024-02-15T04:22:11;24.97;;;13.73;;
7128;SDS011;3606;52.930;8.644;2024-02-15T04:24:37;23.43;;;16.07;;
7128;SDS011;3606;52.930;8.644;2024-02-15T04:27:06;23.63;;;14.77;;
7128;SDS011;3606;52.930;8.644;2024-02-15T04:29:36;28.07;;;16.20;;
7128;SDS011;3606;52.930;8.644;2024-02-15T04:32:05;26.97;;;15.83;;
7128;SDS011;3606;52.930;8.644;2024-02-15T04:34:34;25.23;;;16.30;;
7128;SDS011;3606;52.930;8.644;2024-02-15T04:36:59;28.27;;;16.30;;
7128;SDS011;3606;52.930;8.644;2024-02-15T04:39:26;34.30;;;17.57;;
7128;SDS011;3606;52.930;8.644;2024-02-15T04:41:55;29.83;;;17.10;;
7128;SDS011;3606;52.930;8.644;2024-02-15T04:44:21;25.93;;;16.27;;
7128;SDS011;3606;52.930;8.644;2024-02-15T04:46:47;25.93;;;16.20;;
7128;SDS011;3606;52.930;8.644;2024-02-15T04:49:14;24.93;;;15.33;;
7128;SDS011;3606;52.930;8.644;2024-02-15T04:51:40;26.43;;;14.93;;
7128;SDS011;3606;52.930;8.644;2024-02-15T04:54:09;27.40;;;16.27;;
7128;SDS011;3606;52.930;8.644;2024-02-15T04:56:38;24.07;;;15.27;;
7128;SDS011;3606;52.930;8.644;2024-02-15T04:59:07;28.07;;;14.63;;
7128;SDS011;3606;52.930;8.644;2024-02-15T05:01:34;24.67;;;14.53;;
7128;SDS011;3606;52.930;8.644;2024-02-15T05:04:00;26.00;;;13.90;;
7128;SDS011;3606;52.930;8.644;2024-02-15T05:06:31;26.50;;;15.43;;
7128;SDS011;3606;52.930;8.644;2024-02-15T05:08:57;26.97;;;14.80;;
7128;SDS011;3606;52.930;8.644;2024-02-15T05:11:24;24.67;;;14.60;;
7128;SDS011;3606;52.930;8.644;2024-02-15T05:13:50;25.17;;;15.37;;
7128;SDS011;3606;52.930;8.644;2024-02-15T05:16:17;24.87;;;14.03;;
7128;SDS011;3606;52.930;8.644;2024-02-15T05:18:43;23.13;;;14.07;;
7128;SDS011;3606;52.930;8.644;2024-02-15T05:21:10;22.83;;;13.60;;
7128;SDS011;3606;52.930;8.644;2024-02-15T05:23:36;24.20;;;13.73;;
7128;SDS011;3606;52.930;8.644;2024-02-15T05:26:04;19.40;;;13.20;;
7128;SDS011;3606;52.930;8.644;2024-02-15T05:28:30;22.80;;;13.47;;
7128;SDS011;3606;52.930;8.644;2024-02-15T05:31:10;20.37;;;12.43;;
7128;SDS011;3606;52.930;8.644;2024-02-15T05:33:42;23.20;;;13.33;;
7128;SDS011;3606;52.930;8.644;2024-02-15T05:36:14;19.47;;;11.40;;
7128;SDS011;3606;52.930;8.644;2024-02-15T05:38:41;25.77;;;12.83;;
7128;SDS011;3606;52.930;8.644;2024-02-15T05:41:10;17.83;;;11.47;;
7128;SDS011;3606;52.930;8.644;2024-02-15T05:43:36;19.60;;;11.87;;
7128;SDS011;3606;52.930;8.644;2024-02-15T05:46:04;18.63;;;11.70;;
7128;SDS011;3606;52.930;8.644;2024-02-15T05:48:31;18.23;;;12.73;;
7128;SDS011;3606;52.930;8.644;2024-02-15T05:51:00;19.00;;;12.27;;
7128;SDS011;3606;52.930;8.644;2024-02-15T05:53:30;20.20;;;11.57;;
7128;SDS011;3606;52.930;8.644;2024-02-15T05:55:56;16.20;;;10.77;;
7128;SDS011;3606;52.930;8.644;2024-02-15T05:58:25;17.27;;;11.60;;
7128;SDS011;3606;52.930;8.644;2024-02-15T06:00:51;21.33;;;11.93;;
7128;SDS011;3606;52.930;8.644;2024-02-15T06:03:18;16.43;;;11.10;;
7128;SDS011;3606;52.930;8.644;2024-02-15T06:05:48;20.40;;;11.03;;
7128;SDS011;3606;52.930;8.644;2024-02-15T06:08:13;20.00;;;11.47;;
7128;SDS011;3606;52.930;8.644;2024-02-15T06:10:39;18.27;;;11.33;;
7128;SDS011;3606;52.930;8.644;2024-02-15T06:13:06;20.37;;;11.83;;
7128;SDS011;3606;52.930;8.644;2024-02-15T06:15:34;18.47;;;12.00;;
7128;SDS011;3606;52.930;8.644;2024-02-15T06:18:00;15.73;;;11.30;;
7128;SDS011;3606;52.930;8.644;2024-02-15T06:20:25;20.83;;;11.63;;
7128;SDS011;3606;52.930;8.644;2024-02-15T06:22:54;17.57;;;12.10;;
7128;SDS011;3606;52.930;8.644;2024-02-15T06:25:20;17.23;;;12.23;;
7128;SDS011;3606;52.930;8.644;2024-02-15T06:27:46;19.00;;;12.60;;
7128;SDS011;3606;52.930;8.644;2024-02-15T06:30:14;20.73;;;12.90;;
7128;SDS011;3606;52.930;8.644;2024-02-15T06:32:58;17.93;;;12.17;;
7128;SDS011;3606;52.930;8.644;2024-02-15T06:35:42;19.83;;;12.87;;
7128;SDS011;3606;52.930;8.644;2024-02-15T06:38:26;18.90;;;13.10;;
7128;SDS011;3606;52.930;8.644;2024-02-15T06:41:10;24.17;;;15.13;;
7128;SDS011;3606;52.930;8.644;2024-02-15T06:43:36;21.13;;;14.17;;
7128;SDS011;3606;52.930;8.644;2024-02-15T06:46:03;21.13;;;14.30;;
7128;SDS011;3606;52.930;8.644;2024-02-15T06:48:31;23.37;;;15.10;;
7128;SDS011;3606;52.930;8.644;2024-02-15T06:50:57;19.83;;;14.10;;
7128;SDS011;3606;52.930;8.644;2024-02-15T06:53:23;27.47;;;14.90;;
7128;SDS011;3606;52.930;8.644;2024-02-15T06:55:49;24.70;;;14.83;;
7128;SDS011;3606;52.930;8.644;2024-02-15T06:58:16;22.03;;;15.53;;
7128;SDS011;3606;52.930;8.644;2024-02-15T07:00:45;25.87;;;15.40;;
7128;SDS011;3606;52.930;8.644;2024-02-15T07:03:11;24.77;;;16.40;;
7128;SDS011;3606;52.930;8.644;2024-02-15T07:05:36;26.63;;;15.53;;
7128;SDS011;3606;52.930;8.644;2024-02-15T07:08:07;21.87;;;15.20;;
7128;SDS011;3606;52.930;8.644;2024-02-15T07:10:36;21.27;;;16.40;;
7128;SDS011;3606;52.930;8.644;2024-02-15T07:13:03;27.77;;;17.07;;
7128;SDS011;3606;52.930;8.644;2024-02-15T07:15:29;26.53;;;17.80;;
7128;SDS011;3606;52.930;8.644;2024-02-15T07:17:58;23.73;;;15.63;;
7128;SDS011;3606;52.930;8.644;2024-02-15T07:20:24;24.60;;;15.97;;
7128;SDS011;3606;52.930;8.644;2024-02-15T07:22:50;25.10;;;16.33;;
7128;SDS011;3606;52.930;8.644;2024-02-15T07:25:16;22.93;;;15.67;;
7128;SDS011;3606;52.930;8.644;2024-02-15T07:27:43;26.80;;;15.43;;
7128;SDS011;3606;52.930;8.644;2024-02-15T07:30:08;34.17;;;17.23;;
7128;SDS011;3606;52.930;8.644;2024-02-15T07:32:34;24.87;;;17.57;;
7128;SDS011;3606;52.930;8.644;2024-02-15T07:35:00;26.27;;;17.40;;
7128;SDS011;3606;52.930;8.644;2024-02-15T07:37:26;30.97;;;18.60;;
7128;SDS011;3606;52.930;8.644;2024-02-15T07:39:54;25.53;;;17.87;;
7128;SDS011;3606;52.930;8.644;2024-02-15T07:42:19;29.87;;;18.47;;
7128;SDS011;3606;52.930;8.644;2024-02-15T07:44:45;33.97;;;17.77;;
7128;SDS011;3606;52.930;8.644;2024-02-15T07:47:11;28.10;;;18.63;;
7128;SDS011;3606;52.930;8.644;2024-02-15T07:49:36;29.07;;;17.73;;
7128;SDS011;3606;52.930;8.644;2024-02-15T07:52:02;30.90;;;17.23;;
7128;SDS011;3606;52.930;8.644;2024-02-15T07:54:29;27.57;;;17.13;;
7128;SDS011;3606;52.930;8.644;2024-02-15T07:56:56;26.00;;;17.53;;
7128;SDS011;3606;52.930;8.644;2024-02-15T07:59:23;28.60;;;16.27;;
7128;SDS011;3606;52.930;8.644;2024-02-15T08:01:48;24.47;;;16.73;;
7128;SDS011;3606;52.930;8.644;2024-02-15T08:04:15;25.60;;;16.70;;
7128;SDS011;3606;52.930;8.644;2024-02-15T08:06:42;25.47;;;17.03;;
7128;SDS011;3606;52.930;8.644;2024-02-15T08:09:09;27.37;;;17.73;;
7128;SDS011;3606;52.930;8.644;2024-02-15T08:11:39;28.93;;;17.03;;
7128;SDS011;3606;52.930;8.644;2024-02-15T08:14:05;28.70;;;17.87;;
7128;SDS011;3606;52.930;8.644;2024-02-15T08:16:35;27.70;;;17.87;;
7128;SDS011;3606;52.930;8.644;2024-02-15T08:19:02;25.20;;;17.93;;
7128;SDS011;3606;52.930;8.644;2024-02-15T08:21:31;30.87;;;18.70;;
7128;SDS011;3606;52.930;8.644;2024-02-15T08:24:06;28.47;;;18.33;;
7128;SDS011;3606;52.930;8.644;2024-02-15T08:26:38;30.30;;;20.23;;
7128;SDS011;3606;52.930;8.644;2024-02-15T08:29:04;31.10;;;19.83;;
7128;SDS011;3606;52.930;8.644;2024-02-15T08:31:34;33.67;;;20.87;;
7128;SDS011;3606;52.930;8.644;2024-02-15T08:34:01;32.23;;;20.80;;
7128;SDS011;3606;52.930;8.644;2024-02-15T08:36:27;36.30;;;20.83;;
7128;SDS011;3606;52.930;8.644;2024-02-15T08:38:52;33.70;;;21.40;;
7128;SDS011;3606;52.930;8.644;2024-02-15T08:41:19;34.47;;;21.07;;
7128;SDS011;3606;52.930;8.644;2024-02-15T08:43:46;41.27;;;22.27;;
7128;SDS011;3606;52.930;8.644;2024-02-15T08:46:13;39.20;;;21.13;;
7128;SDS011;3606;52.930;8.644;2024-02-15T08:48:39;39.07;;;22.67;;
7128;SDS011;3606;52.930;8.644;2024-02-15T08:51:05;39.67;;;22.70;;
7128;SDS011;3606;52.930;8.644;2024-02-15T08:53:33;39.07;;;22.90;;
7128;SDS011;3606;52.930;8.644;2024-02-15T08:56:01;34.87;;;22.07;;
7128;SDS011;3606;52.930;8.644;2024-02-15T08:58:28;36.67;;;22.40;;
7128;SDS011;3606;52.930;8.644;2024-02-15T09:00:55;33.67;;;20.97;;
7128;SDS011;3606;52.930;8.644;2024-02-15T09:03:21;37.83;;;22.53;;
7128;SDS011;3606;52.930;8.644;2024-02-15T09:05:47;38.77;;;21.80;;
7128;SDS011;3606;52.930;8.644;2024-02-15T09:08:13;36.17;;;22.90;;
7128;SDS011;3606;52.930;8.644;2024-02-15T09:10:40;36.73;;;21.77;;
7128;SDS011;3606;52.930;8.644;2024-02-15T09:13:07;33.07;;;21.67;;
7128;SDS011;3606;52.930;8.644;2024-02-15T09:15:33;36.20;;;21.50;;
7128;SDS011;3606;52.930;8.644;2024-02-15T09:18:00;37.77;;;20.23;;
7128;SDS011;3606;52.930;8.644;2024-02-15T09:20:26;37.80;;;21.27;;
7128;SDS011;3606;52.930;8.644;2024-02-15T09:22:53;40.97;;;21.03;;
7128;SDS011;3606;52.930;8.644;2024-02-15T09:25:19;35.97;;;21.17;;
7128;SDS011;3606;52.930;8.644;2024-02-15T09:27:49;30.63;;;20.93;;
7128;SDS011;3606;52.930;8.644;2024-02-15T09:30:16;38.07;;;21.87;;
7128;SDS011;3606;52.930;8.644;2024-02-15T09:32:42;32.97;;;21.23;;
7128;SDS011;3606;52.930;8.644;2024-02-15T09:35:09;36.23;;;21.53;;
7128;SDS011;3606;52.930;8.644;2024-02-15T09:37:37;41.00;;;20.47;;
7128;SDS011;3606;52.930;8.644;2024-02-15T09:40:07;32.43;;;19.67;;
7128;SDS011;3606;52.930;8.644;2024-02-15T09:42:35;36.67;;;20.47;;
7128;SDS011;3606;52.930;8.644;2024-02-15T09:45:01;33.97;;;20.20;;
7128;SDS011;3606;52.930;8.644;2024-02-15T09:47:34;30.97;;;20.47;;
7128;SDS011;3606;52.930;8.644;2024-02-15T09:50:06;29.80;;;20.20;;
7128;SDS011;3606;52.930;8.644;2024-02-15T09:52:32;32.33;;;19.97;;
7128;SDS011;3606;52.930;8.644;2024-02-15T09:55:00;29.03;;;18.77;;
7128;SDS011;3606;52.930;8.644;2024-02-15T09:57:28;30.43;;;19.50;;
7128;SDS011;3606;52.930;8.644;2024-02-15T09:59:57;30.27;;;18.87;;
7128;SDS011;3606;52.930;8.644;2024-02-15T10:02:23;34.33;;;19.83;;
7128;SDS011;3606;52.930;8.644;2024-02-15T10:04:50;30.13;;;19.37;;
7128;SDS011;3606;52.930;8.644;2024-02-15T10:07:17;30.93;;;18.30;;
7128;SDS011;3606;52.930;8.644;2024-02-15T10:09:43;26.97;;;18.10;;
7128;SDS011;3606;52.930;8.644;2024-02-15T10:12:09;34.70;;;18.63;;
7128;SDS011;3606;52.930;8.644;2024-02-15T10:14:35;29.43;;;18.37;;
7128;SDS011;3606;52.930;8.644;2024-02-15T10:17:07;34.20;;;19.83;;
7128;SDS011;3606;52.930;8.644;2024-02-15T10:19:34;31.60;;;18.23;;
7128;SDS011;3606;52.930;8.644;2024-02-15T10:22:07;30.37;;;18.43;;
7128;SDS011;3606;52.930;8.644;2024-02-15T10:24:33;26.37;;;17.97;;
7128;SDS011;3606;52.930;8.644;2024-02-15T10:27:00;29.87;;;18.07;;
7128;SDS011;3606;52.930;8.644;2024-02-15T10:29:29;26.63;;;17.60;;
7128;SDS011;3606;52.930;8.644;2024-02-15T10:31:59;27.10;;;17.87;;
7128;SDS011;3606;52.930;8.644;2024-02-15T10:34:25;30.63;;;17.70;;
7128;SDS011;3606;52.930;8.644;2024-02-15T10:36:54;27.23;;;16.57;;
7128;SDS011;3606;52.930;8.644;2024-02-15T10:39:22;25.67;;;16.43;;
7128;SDS011;3606;52.930;8.644;2024-02-15T10:41:53;25.10;;;16.33;;
7128;SDS011;3606;52.930;8.644;2024-02-15T10:44:23;24.07;;;15.57;;
7128;SDS011;3606;52.930;8.644;2024-02-15T10:46:52;23.57;;;15.73;;
7128;SDS011;3606;52.930;8.644;2024-02-15T10:49:18;22.73;;;15.87;;
7128;SDS011;3606;52.930;8.644;2024-02-15T10:51:48;22.97;;;15.07;;
7128;SDS011;3606;52.930;8.644;2024-02-15T10:54:19;24.07;;;15.87;;
7128;SDS011;3606;52.930;8.644;2024-02-15T10:57:03;20.67;;;14.70;;
7128;SDS011;3606;52.930;8.644;2024-02-15T10:59:31;24.27;;;15.33;;
7128;SDS011;3606;52.930;8.644;2024-02-15T11:02:03;23.47;;;14.93;;
7128;SDS011;3606;52.930;8.644;2024-02-15T11:04:45;21.43;;;14.33;;
7128;SDS011;3606;52.930;8.644;2024-02-15T11:07:16;24.73;;;14.53;;
7128;SDS011;3606;52.930;8.644;2024-02-15T11:09:43;18.53;;;13.67;;
7128;SDS011;3606;52.930;8.644;2024-02-15T11:12:08;20.80;;;14.23;;
7128;SDS011;3606;52.930;8.644;2024-02-15T11:14:36;22.23;;;14.30;;
7128;SDS011;3606;52.930;8.644;2024-02-15T11:17:02;19.27;;;13.80;;
7128;SDS011;3606;52.930;8.644;2024-02-15T11:19:40;21.37;;;13.87;;
7128;SDS011;3606;52.930;8.644;2024-02-15T11:22:11;18.57;;;14.20;;
7128;SDS011;3606;52.930;8.644;2024-02-15T11:24:50;22.10;;;14.17;;
7128;SDS011;3606;52.930;8.644;2024-02-15T11:27:26;22.47;;;14.13;;
7128;SDS011;3606;52.930;8.644;2024-02-15T11:35:16;21.63;;;13.47;;
7128;SDS011;3606;52.930;8.644;2024-02-15T11:40:24;20.73;;;13.27;;
7128;SDS011;3606;52.930;8.644;2024-02-15T11:45:24;16.97;;;12.10;;
7128;SDS011;3606;52.930;8.644;2024-02-15T11:47:52;15.70;;;12.50;;
7128;SDS011;3606;52.930;8.644;2024-02-15T11:50:19;14.17;;;11.63;;
7128;SDS011;3606;52.930;8.644;2024-02-15T11:52:47;15.17;;;11.97;;
7128;SDS011;3606;52.930;8.644;2024-02-15T11:55:19;17.30;;;12.17;;
7128;SDS011;3606;52.930;8.644;2024-02-15T12:00:41;15.83;;;11.43;;
7128;SDS011;3606;52.930;8.644;2024-02-15T12:03:42;17.63;;;12.27;;
7128;SDS011;3606;52.930;8.644;2024-02-15T12:06:27;13.83;;;11.00;;
7128;SDS011;3606;52.930;8.644;2024-02-15T12:09:11;13.83;;;11.03;;
7128;SDS011;3606;52.930;8.644;2024-02-15T12:11:58;14.20;;;11.17;;
7128;SDS011;3606;52.930;8.644;2024-02-15T12:14:43;15.47;;;10.90;;
7128;SDS011;3606;52.930;8.644;2024-02-15T12:17:26;15.87;;;10.00;;
7128;SDS011;3606;52.930;8.644;2024-02-15T12:20:11;14.37;;;9.70;;
7128;SDS011;3606;52.930;8.644;2024-02-15T12:22:40;12.93;;;9.87;;
7128;SDS011;3606;52.930;8.644;2024-02-15T12:25:17;12.37;;;10.40;;
7128;SDS011;3606;52.930;8.644;2024-02-15T12:27:46;15.10;;;10.57;;
7128;SDS011;3606;52.930;8.644;2024-02-15T12:30:17;12.73;;;9.50;;
7128;SDS011;3606;52.930;8.644;2024-02-15T12:32:48;15.87;;;9.70;;
7128;SDS011;3606;52.930;8.644;2024-02-15T12:35:15;13.17;;;9.93;;
7128;SDS011;3606;52.930;8.644;2024-02-15T12:37:48;10.97;;;8.70;;
7128;SDS011;3606;52.930;8.644;2024-02-15T12:40:37;11.70;;;8.53;;
7128;SDS011;3606;52.930;8.644;2024-02-15T12:43:05;11.83;;;8.10;;
7128;SDS011;3606;52.930;8.644;2024-02-15T12:45:37;8.53;;;7.60;;
7128;SDS011;3606;52.930;8.644;2024-02-15T12:48:04;10.77;;;8.50;;
7128;SDS011;3606;52.930;8.644;2024-02-15T12:50:30;12.07;;;8.17;;
7128;SDS011;3606;52.930;8.644;2024-02-15T12:52:57;12.67;;;8.63;;
7128;SDS011;3606;52.930;8.644;2024-02-15T12:55:29;9.13;;;8.00;;
7128;SDS011;3606;52.930;8.644;2024-02-15T12:58:05;9.30;;;7.37;;
7128;SDS011;3606;52.930;8.644;2024-02-15T13:00:38;8.57;;;7.67;;
7128;SDS011;3606;52.930;8.644;2024-02-15T13:03:05;8.40;;;7.57;;
7128;SDS011;3606;52.930;8.644;2024-02-15T13:05:35;11.37;;;7.47;;
7128;SDS011;3606;52.930;8.644;2024-02-15T13:08:03;11.30;;;7.27;;
7128;SDS011;3606;52.930;8.644;2024-02-15T13:10:38;8.90;;;7.70;;
7128;SDS011;3606;52.930;8.644;2024-02-15T13:13:04;7.10;;;6.40;;
7128;SDS011;3606;52.930;8.644;2024-02-15T13:15:30;7.70;;;6.90;;
7128;SDS011;3606;52.930;8.644;2024-02-15T13:17:59;8.73;;;6.50;;
7128;SDS011;3606;52.930;8.644;2024-02-15T13:20:26;7.40;;;6.70;;
7128;SDS011;3606;52.930;8.644;2024-02-15T13:22:59;6.83;;;5.90;;
7128;SDS011;3606;52.930;8.644;2024-02-15T13:25:48;8.93;;;6.07;;
7128;SDS011;3606;52.930;8.644;2024-02-15T13:28:15;6.83;;;5.50;;
7128;SDS011;3606;52.930;8.644;2024-02-15T13:30:41;6.63;;;5.80;;
7128;SDS011;3606;52.930;8.644;2024-02-15T13:33:09;7.07;;;6.03;;
7128;SDS011;3606;52.930;8.644;2024-02-15T13:35:41;10.20;;;6.53;;
7128;SDS011;3606;52.930;8.644;2024-02-15T13:38:07;8.43;;;5.47;;
7128;SDS011;3606;52.930;8.644;2024-02-15T13:40:39;7.53;;;4.97;;
7128;SDS011;3606;52.930;8.644;2024-02-15T13:43:06;6.00;;;5.13;;
7128;SDS011;3606;52.930;8.644;2024-02-15T13:45:39;8.17;;;5.03;;
7128;SDS011;3606;52.930;8.644;2024-02-15T13:48:05;6.53;;;5.00;;
7128;SDS011;3606;52.930;8.644;2024-02-15T13:50:35;5.40;;;4.53;;
7128;SDS011;3606;52.930;8.644;2024-02-15T13:53:02;5.77;;;4.70;;
7128;SDS011;3606;52.930;8.644;2024-02-15T13:55:29;5.27;;;4.87;;
7128;SDS011;3606;52.930;8.644;2024-02-15T13:57:54;7.07;;;5.40;;
7128;SDS011;3606;52.930;8.644;2024-02-15T14:00:21;7.87;;;5.30;;
7128;SDS011;3606;52.930;8.644;2024-02-15T14:02:51;6.07;;;5.27;;
7128;SDS011;3606;52.930;8.644;2024-02-15T14:05:18;7.33;;;4.57;;
7128;SDS011;3606;52.930;8.644;2024-02-15T14:07:48;9.37;;;5.30;;
7128;SDS011;3606;52.930;8.644;2024-02-15T14:10:15;5.47;;;4.70;;
7128;SDS011;3606;52.930;8.644;2024-02-15T14:12:43;7.77;;;5.20;;
7128;SDS011;3606;52.930;8.644;2024-02-15T14:15:10;8.50;;;6.37;;
7128;SDS011;3606;52.930;8.644;2024-02-15T14:17:36;7.97;;;5.70;;
7128;SDS011;3606;52.930;8.644;2024-02-15T14:20:02;5.67;;;5.17;;
7128;SDS011;3606;52.930;8.644;2024-02-15T14:22:33;6.00;;;5.40;;
7128;SDS011;3606;52.930;8.644;2024-02-15T14:24:59;7.53;;;5.20;;
7128;SDS011;3606;52.930;8.644;2024-02-15T14:27:25;7.43;;;5.60;;
7128;SDS011;3606;52.930;8.644;2024-02-15T14:29:50;6.83;;;5.90;;
7128;SDS011;3606;52.930;8.644;2024-02-15T14:32:34;5.77;;;5.07;;
7128;SDS011;3606;52.930;8.644;2024-02-15T14:35:18;5.30;;;4.67;;
7128;SDS011;3606;52.930;8.644;2024-02-15T14:37:45;6.60;;;5.33;;
7128;SDS011;3606;52.930;8.644;2024-02-15T14:40:11;6.07;;;5.47;;
7128;SDS011;3606;52.930;8.644;2024-02-15T14:42:40;7.17;;;5.30;;
7128;SDS011;3606;52.930;8.644;2024-02-15T14:45:08;10.20;;;5.30;;
7128;SDS011;3606;52.930;8.644;2024-02-15T14:47:34;9.00;;;5.13;;
7128;SDS011;3606;52.930;8.644;2024-02-15T14:50:00;6.63;;;5.43;;
7128;SDS011;3606;52.930;8.644;2024-02-15T14:52:26;6.37;;;5.30;;
7128;SDS011;3606;52.930;8.644;2024-02-15T14:54:51;11.20;;;5.53;;
7128;SDS011;3606;52.930;8.644;2024-02-15T14:57:17;9.17;;;5.00;;
7128;SDS011;3606;52.930;8.644;2024-02-15T14:59:42;6.83;;;5.50;;
7128;SDS011;3606;52.930;8.644;2024-02-15T15:02:08;7.30;;;5.43;;
7128;SDS011;3606;52.930;8.644;2024-02-15T15:04:34;6.07;;;4.70;;
7128;SDS011;3606;52.930;8.644;2024-02-15T15:07:20;8.57;;;4.93;;
7128;SDS011;3606;52.930;8.644;2024-02-15T15:10:04;5.63;;;4.33;;
7128;SDS011;3606;52.930;8.644;2024-02-15T15:12:49;6.90;;;5.33;;